Strona główna
METAR-TAF:

METAR-TAF

Lotnisko :

Port lotniczy Gibraltar

Gibraltar, Gibraltar

Szerokość geograficzna: 36-09N, Długość geograficzna: 005-21W, wysokość: 5 m

Aktualna obserwacja pogody

Raport powstał 1 godzina i 17 minut temu, godzina 01:50 UTC
Wiatr 9 kt od południe
Temperatura 19°C
Wilgotność 88%
Ciśnienie 1010 hPa
Widzialność 10 km lub więcej

METAR: LXGB 180150Z AUTO 19009KT 9999 // SCT150/// 19/17 Q1010

czas: 05:07 (03:07 UTC)

Prognoza

Raport powstał 10 godziny i 51 minut temu, godzina 16:16 UTC
Prognoza ważna od 17 godzina 18 UTC do 17 godzina 22 UTC
Wiatr 8 kt od południowo-południowy zachód
Widzialność 10 km lub więcej
Mało chmury na wysokości 3500 ft
Prawdopodobieństwo 30% :
Przejściowo
od 17 godzina 20 UTC do 17 godzina 22 UTC
Rozproszone chmury na wysokości 2400 ft

TAF: LXGB 171616Z 1718/1722 21008KT 9999 FEW035 PROB30 TEMPO 1720/1722 SCT024

Obserwacja i prognoza pogody dla ponad 4000 lotnisk (raport METAR i TAF).

Dostępne stacje oznaczono żółtymi i czerwonymi punktami na mapie.

Najedź kursorem aby zobaczyć nazwę stacji.

Kliknij aby zobaczyć obserwacje i prognozy pogody.

Aby zmienić mapę: kliknij na zielony przycisk z czarnym krzyżykiem, aby powiększyć; na zielony przycisk z myślnikiem, aby pomniejszyć; na zielone strzałki, aby przejść do map sąsiednich.


METAR-TAF: